sensor_id;sensor_type;location;lat;lon;timestamp;temperature;humidity
55313;DHT22;46892;45.668;11.756;2023-07-09T00:01:15;22.30;74.70
55313;DHT22;46892;45.668;11.756;2023-07-09T00:03:43;22.20;75.00
55313;DHT22;46892;45.668;11.756;2023-07-09T00:06:09;22.20;75.50
55313;DHT22;46892;45.668;11.756;2023-07-09T00:08:35;22.20;74.90
55313;DHT22;46892;45.668;11.756;2023-07-09T00:11:03;22.20;74.20
55313;DHT22;46892;45.668;11.756;2023-07-09T00:13:29;22.30;74.20
55313;DHT22;46892;45.668;11.756;2023-07-09T00:15:58;22.20;75.50
55313;DHT22;46892;45.668;11.756;2023-07-09T00:18:25;22.20;75.40
55313;DHT22;46892;45.668;11.756;2023-07-09T00:20:50;22.10;75.80
55313;DHT22;46892;45.668;11.756;2023-07-09T00:23:18;22.10;76.40
55313;DHT22;46892;45.668;11.756;2023-07-09T00:25:45;22.10;75.60
55313;DHT22;46892;45.668;11.756;2023-07-09T00:28:18;22.10;75.40
55313;DHT22;46892;45.668;11.756;2023-07-09T00:30:46;22.00;75.70
55313;DHT22;46892;45.668;11.756;2023-07-09T00:33:14;21.90;75.90
55313;DHT22;46892;45.668;11.756;2023-07-09T00:35:41;21.90;76.10
55313;DHT22;46892;45.668;11.756;2023-07-09T00:38:19;21.90;76.00
55313;DHT22;46892;45.668;11.756;2023-07-09T00:43:29;21.90;75.80
55313;DHT22;46892;45.668;11.756;2023-07-09T00:49:00;21.80;75.60
55313;DHT22;46892;45.668;11.756;2023-07-09T00:51:29;21.70;75.80
55313;DHT22;46892;45.668;11.756;2023-07-09T00:53:58;21.60;76.00
55313;DHT22;46892;45.668;11.756;2023-07-09T00:56:51;21.60;76.90
55313;DHT22;46892;45.668;11.756;2023-07-09T00:59:21;21.60;77.40
55313;DHT22;46892;45.668;11.756;2023-07-09T01:01:47;21.60;77.80
55313;DHT22;46892;45.668;11.756;2023-07-09T01:04:16;21.50;77.50
55313;DHT22;46892;45.668;11.756;2023-07-09T01:06:52;21.50;77.60
55313;DHT22;46892;45.668;11.756;2023-07-09T01:09:18;21.50;77.30
55313;DHT22;46892;45.668;11.756;2023-07-09T01:11:44;21.60;77.00
55313;DHT22;46892;45.668;11.756;2023-07-09T01:14:13;21.50;77.30
55313;DHT22;46892;45.668;11.756;2023-07-09T01:17:03;21.40;77.80
55313;DHT22;46892;45.668;11.756;2023-07-09T01:19:37;21.40;78.00
55313;DHT22;46892;45.668;11.756;2023-07-09T01:22:09;21.40;77.90
55313;DHT22;46892;45.668;11.756;2023-07-09T01:25:12;21.30;78.10
55313;DHT22;46892;45.668;11.756;2023-07-09T01:27:42;21.30;78.10
55313;DHT22;46892;45.668;11.756;2023-07-09T01:30:15;21.20;78.80
55313;DHT22;46892;45.668;11.756;2023-07-09T01:32:41;21.20;78.60
55313;DHT22;46892;45.668;11.756;2023-07-09T01:35:12;21.10;78.80
55313;DHT22;46892;45.668;11.756;2023-07-09T01:37:41;21.10;78.50
55313;DHT22;46892;45.668;11.756;2023-07-09T01:40:08;21.10;78.70
55313;DHT22;46892;45.668;11.756;2023-07-09T01:42:35;21.00;79.10
55313;DHT22;46892;45.668;11.756;2023-07-09T01:45:03;21.10;79.60
55313;DHT22;46892;45.668;11.756;2023-07-09T01:47:30;21.20;79.30
55313;DHT22;46892;45.668;11.756;2023-07-09T01:49:55;21.20;79.00
55313;DHT22;46892;45.668;11.756;2023-07-09T01:52:24;21.20;78.40
55313;DHT22;46892;45.668;11.756;2023-07-09T01:54:51;21.20;78.50
55313;DHT22;46892;45.668;11.756;2023-07-09T01:59:50;21.10;78.70
55313;DHT22;46892;45.668;11.756;2023-07-09T02:02:17;21.00;79.40
55313;DHT22;46892;45.668;11.756;2023-07-09T02:04:50;21.20;79.70
55313;DHT22;46892;45.668;11.756;2023-07-09T02:07:16;21.20;79.70
55313;DHT22;46892;45.668;11.756;2023-07-09T02:09:43;21.20;79.30
55313;DHT22;46892;45.668;11.756;2023-07-09T02:12:10;21.20;79.30
55313;DHT22;46892;45.668;11.756;2023-07-09T02:14:36;21.20;79.20
55313;DHT22;46892;45.668;11.756;2023-07-09T02:17:02;21.20;78.80
55313;DHT22;46892;45.668;11.756;2023-07-09T02:19:29;21.20;79.30
55313;DHT22;46892;45.668;11.756;2023-07-09T02:21:56;21.10;79.00
55313;DHT22;46892;45.668;11.756;2023-07-09T02:24:22;21.10;78.90
55313;DHT22;46892;45.668;11.756;2023-07-09T02:26:52;21.10;78.40
55313;DHT22;46892;45.668;11.756;2023-07-09T02:29:18;21.00;78.50
55313;DHT22;46892;45.668;11.756;2023-07-09T02:31:44;21.00;78.50
55313;DHT22;46892;45.668;11.756;2023-07-09T02:34:10;21.00;78.10
55313;DHT22;46892;45.668;11.756;2023-07-09T02:36:36;21.00;78.10
55313;DHT22;46892;45.668;11.756;2023-07-09T02:39:02;20.90;79.30
55313;DHT22;46892;45.668;11.756;2023-07-09T02:41:28;20.80;79.10
55313;DHT22;46892;45.668;11.756;2023-07-09T02:43:53;20.80;78.80
55313;DHT22;46892;45.668;11.756;2023-07-09T02:46:19;20.80;79.00
55313;DHT22;46892;45.668;11.756;2023-07-09T02:48:45;20.70;79.40
55313;DHT22;46892;45.668;11.756;2023-07-09T02:51:10;20.70;79.30
55313;DHT22;46892;45.668;11.756;2023-07-09T02:53:36;20.80;78.80
55313;DHT22;46892;45.668;11.756;2023-07-09T02:56:02;20.80;78.30
55313;DHT22;46892;45.668;11.756;2023-07-09T02:58:27;20.80;79.30
55313;DHT22;46892;45.668;11.756;2023-07-09T03:00:53;20.80;78.60
55313;DHT22;46892;45.668;11.756;2023-07-09T03:03:20;20.70;78.80
55313;DHT22;46892;45.668;11.756;2023-07-09T03:05:47;20.70;78.80
55313;DHT22;46892;45.668;11.756;2023-07-09T03:08:13;20.70;79.70
55313;DHT22;46892;45.668;11.756;2023-07-09T03:10:40;20.70;78.90
55313;DHT22;46892;45.668;11.756;2023-07-09T03:13:06;20.70;79.00
55313;DHT22;46892;45.668;11.756;2023-07-09T03:15:32;20.70;79.40
55313;DHT22;46892;45.668;11.756;2023-07-09T03:17:57;20.70;79.70
55313;DHT22;46892;45.668;11.756;2023-07-09T03:20:24;20.80;79.60
55313;DHT22;46892;45.668;11.756;2023-07-09T03:22:50;20.70;79.10
55313;DHT22;46892;45.668;11.756;2023-07-09T03:25:16;20.60;79.10
55313;DHT22;46892;45.668;11.756;2023-07-09T03:27:42;20.60;79.10
55313;DHT22;46892;45.668;11.756;2023-07-09T03:30:08;20.60;79.10
55313;DHT22;46892;45.668;11.756;2023-07-09T03:32:34;20.50;79.20
55313;DHT22;46892;45.668;11.756;2023-07-09T03:35:00;20.50;79.10
55313;DHT22;46892;45.668;11.756;2023-07-09T03:37:25;20.60;78.80
55313;DHT22;46892;45.668;11.756;2023-07-09T03:39:51;20.50;79.60
55313;DHT22;46892;45.668;11.756;2023-07-09T03:42:17;20.50;79.40
55313;DHT22;46892;45.668;11.756;2023-07-09T03:44:42;20.40;79.80
55313;DHT22;46892;45.668;11.756;2023-07-09T03:47:08;20.40;79.80
55313;DHT22;46892;45.668;11.756;2023-07-09T03:49:34;20.40;79.70
55313;DHT22;46892;45.668;11.756;2023-07-09T03:51:59;20.40;80.20
55313;DHT22;46892;45.668;11.756;2023-07-09T03:54:25;20.50;80.50
55313;DHT22;46892;45.668;11.756;2023-07-09T03:56:51;20.50;80.10
55313;DHT22;46892;45.668;11.756;2023-07-09T03:59:17;20.60;79.50
55313;DHT22;46892;45.668;11.756;2023-07-09T04:01:43;20.60;79.10
55313;DHT22;46892;45.668;11.756;2023-07-09T04:04:13;20.60;79.80
55313;DHT22;46892;45.668;11.756;2023-07-09T04:06:39;20.70;79.20
55313;DHT22;46892;45.668;11.756;2023-07-09T04:09:05;20.70;78.70
55313;DHT22;46892;45.668;11.756;2023-07-09T04:11:30;20.80;78.20
55313;DHT22;46892;45.668;11.756;2023-07-09T04:13:56;20.80;79.20
55313;DHT22;46892;45.668;11.756;2023-07-09T04:16:22;20.80;79.30
55313;DHT22;46892;45.668;11.756;2023-07-09T04:18:48;20.90;78.50
55313;DHT22;46892;45.668;11.756;2023-07-09T04:21:14;20.90;78.20
55313;DHT22;46892;45.668;11.756;2023-07-09T04:23:40;21.00;77.80
55313;DHT22;46892;45.668;11.756;2023-07-09T04:26:05;21.00;78.70
55313;DHT22;46892;45.668;11.756;2023-07-09T04:28:34;21.10;78.70
55313;DHT22;46892;45.668;11.756;2023-07-09T04:31:00;21.20;78.70
55313;DHT22;46892;45.668;11.756;2023-07-09T04:33:26;21.30;78.80
55313;DHT22;46892;45.668;11.756;2023-07-09T04:35:52;21.30;78.00
55313;DHT22;46892;45.668;11.756;2023-07-09T04:38:17;21.50;78.30
55313;DHT22;46892;45.668;11.756;2023-07-09T04:40:43;21.60;77.40
55313;DHT22;46892;45.668;11.756;2023-07-09T04:43:09;21.70;77.40
55313;DHT22;46892;45.668;11.756;2023-07-09T04:45:35;21.80;77.60
55313;DHT22;46892;45.668;11.756;2023-07-09T04:48:01;21.80;77.70
55313;DHT22;46892;45.668;11.756;2023-07-09T04:50:27;21.90;77.20
55313;DHT22;46892;45.668;11.756;2023-07-09T04:52:52;22.10;77.00
55313;DHT22;46892;45.668;11.756;2023-07-09T04:55:18;22.30;77.50
55313;DHT22;46892;45.668;11.756;2023-07-09T04:57:45;22.40;77.10
55313;DHT22;46892;45.668;11.756;2023-07-09T05:00:11;22.60;76.70
55313;DHT22;46892;45.668;11.756;2023-07-09T05:02:37;22.90;76.20
55313;DHT22;46892;45.668;11.756;2023-07-09T05:05:03;23.20;73.60
55313;DHT22;46892;45.668;11.756;2023-07-09T05:07:29;23.50;72.20
55313;DHT22;46892;45.668;11.756;2023-07-09T05:09:54;23.90;71.90
55313;DHT22;46892;45.668;11.756;2023-07-09T05:12:20;24.30;69.90
55313;DHT22;46892;45.668;11.756;2023-07-09T05:14:46;24.60;68.40
55313;DHT22;46892;45.668;11.756;2023-07-09T05:17:12;25.00;69.40
55313;DHT22;46892;45.668;11.756;2023-07-09T05:19:38;25.30;67.00
55313;DHT22;46892;45.668;11.756;2023-07-09T05:22:04;25.60;65.90
55313;DHT22;46892;45.668;11.756;2023-07-09T05:24:30;25.80;65.70
55313;DHT22;46892;45.668;11.756;2023-07-09T05:26:56;26.00;66.40
55313;DHT22;46892;45.668;11.756;2023-07-09T05:29:22;26.20;64.50
55313;DHT22;46892;45.668;11.756;2023-07-09T05:31:48;26.30;64.70
55313;DHT22;46892;45.668;11.756;2023-07-09T05:34:14;26.50;64.50
55313;DHT22;46892;45.668;11.756;2023-07-09T05:36:40;26.50;64.40
55313;DHT22;46892;45.668;11.756;2023-07-09T05:39:06;26.30;63.90
55313;DHT22;46892;45.668;11.756;2023-07-09T05:41:32;26.20;63.90
55313;DHT22;46892;45.668;11.756;2023-07-09T05:43:57;26.20;64.90
55313;DHT22;46892;45.668;11.756;2023-07-09T05:46:23;26.30;64.40
55313;DHT22;46892;45.668;11.756;2023-07-09T05:48:49;26.40;64.90
55313;DHT22;46892;45.668;11.756;2023-07-09T05:51:15;26.60;64.00
55313;DHT22;46892;45.668;11.756;2023-07-09T05:53:41;26.70;63.80
55313;DHT22;46892;45.668;11.756;2023-07-09T05:56:07;26.70;64.60
55313;DHT22;46892;45.668;11.756;2023-07-09T05:58:33;26.90;62.10
55313;DHT22;46892;45.668;11.756;2023-07-09T06:00:59;27.00;62.50
55313;DHT22;46892;45.668;11.756;2023-07-09T06:03:26;27.00;62.60
55313;DHT22;46892;45.668;11.756;2023-07-09T06:05:52;27.20;62.40
55313;DHT22;46892;45.668;11.756;2023-07-09T06:08:20;27.40;61.10
55313;DHT22;46892;45.668;11.756;2023-07-09T06:13:21;27.50;60.40
55313;DHT22;46892;45.668;11.756;2023-07-09T06:15:48;27.70;60.30
55313;DHT22;46892;45.668;11.756;2023-07-09T06:18:14;27.80;60.20
55313;DHT22;46892;45.668;11.756;2023-07-09T06:20:40;27.90;58.50
55313;DHT22;46892;45.668;11.756;2023-07-09T06:23:06;27.80;58.50
55313;DHT22;46892;45.668;11.756;2023-07-09T06:25:32;27.70;60.10
55313;DHT22;46892;45.668;11.756;2023-07-09T06:27:58;27.90;61.20
55313;DHT22;46892;45.668;11.756;2023-07-09T06:30:24;28.20;58.80
55313;DHT22;46892;45.668;11.756;2023-07-09T06:32:49;28.10;58.70
55313;DHT22;46892;45.668;11.756;2023-07-09T06:35:15;28.10;58.60
55313;DHT22;46892;45.668;11.756;2023-07-09T06:37:41;28.10;57.60
55313;DHT22;46892;45.668;11.756;2023-07-09T06:40:07;28.00;57.90
55313;DHT22;46892;45.668;11.756;2023-07-09T06:42:35;28.10;58.40
55313;DHT22;46892;45.668;11.756;2023-07-09T06:45:01;28.10;58.20
55313;DHT22;46892;45.668;11.756;2023-07-09T06:47:29;28.00;58.00
55313;DHT22;46892;45.668;11.756;2023-07-09T06:49:54;28.00;59.60
55313;DHT22;46892;45.668;11.756;2023-07-09T06:52:20;28.00;60.30
55313;DHT22;46892;45.668;11.756;2023-07-09T06:54:46;27.80;61.30
55313;DHT22;46892;45.668;11.756;2023-07-09T06:57:11;27.90;59.70
55313;DHT22;46892;45.668;11.756;2023-07-09T06:59:37;28.10;60.80
55313;DHT22;46892;45.668;11.756;2023-07-09T07:02:03;28.20;59.20
55313;DHT22;46892;45.668;11.756;2023-07-09T07:04:29;28.30;61.60
55313;DHT22;46892;45.668;11.756;2023-07-09T07:06:55;28.50;60.50
55313;DHT22;46892;45.668;11.756;2023-07-09T07:09:22;28.50;58.20
55313;DHT22;46892;45.668;11.756;2023-07-09T07:11:49;28.30;58.00
55313;DHT22;46892;45.668;11.756;2023-07-09T07:14:15;28.40;59.10
55313;DHT22;46892;45.668;11.756;2023-07-09T07:16:40;28.30;58.00
55313;DHT22;46892;45.668;11.756;2023-07-09T07:19:06;28.30;58.70
55313;DHT22;46892;45.668;11.756;2023-07-09T07:21:32;28.30;59.50
55313;DHT22;46892;45.668;11.756;2023-07-09T07:23:58;28.50;59.30
55313;DHT22;46892;45.668;11.756;2023-07-09T07:26:24;28.50;58.20
55313;DHT22;46892;45.668;11.756;2023-07-09T07:28:49;28.40;59.10
55313;DHT22;46892;45.668;11.756;2023-07-09T07:31:16;28.70;59.70
55313;DHT22;46892;45.668;11.756;2023-07-09T07:33:42;28.70;59.80
55313;DHT22;46892;45.668;11.756;2023-07-09T07:36:11;28.90;59.10
55313;DHT22;46892;45.668;11.756;2023-07-09T07:38:37;28.90;58.50
55313;DHT22;46892;45.668;11.756;2023-07-09T07:41:03;29.10;58.30
55313;DHT22;46892;45.668;11.756;2023-07-09T07:43:29;29.20;57.60
55313;DHT22;46892;45.668;11.756;2023-07-09T07:45:55;29.20;57.70
55313;DHT22;46892;45.668;11.756;2023-07-09T07:48:20;29.20;57.80
55313;DHT22;46892;45.668;11.756;2023-07-09T07:50:46;29.20;57.70
55313;DHT22;46892;45.668;11.756;2023-07-09T07:53:14;28.90;58.80
55313;DHT22;46892;45.668;11.756;2023-07-09T07:55:41;28.80;60.20
55313;DHT22;46892;45.668;11.756;2023-07-09T07:58:10;28.80;61.40
55313;DHT22;46892;45.668;11.756;2023-07-09T08:00:36;29.20;60.20
55313;DHT22;46892;45.668;11.756;2023-07-09T08:03:02;29.30;56.60
55313;DHT22;46892;45.668;11.756;2023-07-09T08:05:28;29.50;56.60
55313;DHT22;46892;45.668;11.756;2023-07-09T08:07:54;29.70;56.30
55313;DHT22;46892;45.668;11.756;2023-07-09T08:10:20;29.80;57.40
55313;DHT22;46892;45.668;11.756;2023-07-09T08:12:45;30.00;56.60
55313;DHT22;46892;45.668;11.756;2023-07-09T08:15:12;30.10;59.20
55313;DHT22;46892;45.668;11.756;2023-07-09T08:17:37;30.20;56.40
55313;DHT22;46892;45.668;11.756;2023-07-09T08:20:04;30.00;55.30
55313;DHT22;46892;45.668;11.756;2023-07-09T08:22:30;30.00;56.60
55313;DHT22;46892;45.668;11.756;2023-07-09T08:24:56;30.10;56.00
55313;DHT22;46892;45.668;11.756;2023-07-09T08:27:21;30.10;54.80
55313;DHT22;46892;45.668;11.756;2023-07-09T08:29:47;30.00;53.10
55313;DHT22;46892;45.668;11.756;2023-07-09T08:32:13;30.10;53.80
55313;DHT22;46892;45.668;11.756;2023-07-09T08:34:40;30.20;54.70
55313;DHT22;46892;45.668;11.756;2023-07-09T08:37:10;30.20;54.00
55313;DHT22;46892;45.668;11.756;2023-07-09T08:39:36;30.20;54.00
55313;DHT22;46892;45.668;11.756;2023-07-09T08:42:10;30.20;53.70
55313;DHT22;46892;45.668;11.756;2023-07-09T08:50:12;29.90;55.30
55313;DHT22;46892;45.668;11.756;2023-07-09T08:52:44;30.00;53.90
55313;DHT22;46892;45.668;11.756;2023-07-09T08:55:27;30.10;53.90
55313;DHT22;46892;45.668;11.756;2023-07-09T08:58:05;30.00;55.40
55313;DHT22;46892;45.668;11.756;2023-07-09T09:00:44;30.20;53.90
55313;DHT22;46892;45.668;11.756;2023-07-09T09:03:26;30.30;53.50
55313;DHT22;46892;45.668;11.756;2023-07-09T09:05:55;30.30;54.70
55313;DHT22;46892;45.668;11.756;2023-07-09T09:08:33;30.30;52.70
55313;DHT22;46892;45.668;11.756;2023-07-09T09:11:34;30.20;53.80
55313;DHT22;46892;45.668;11.756;2023-07-09T09:14:15;30.10;54.60
55313;DHT22;46892;45.668;11.756;2023-07-09T09:16:44;30.00;53.70
55313;DHT22;46892;45.668;11.756;2023-07-09T09:19:37;30.00;53.60
55313;DHT22;46892;45.668;11.756;2023-07-09T09:22:11;29.90;53.30
55313;DHT22;46892;45.668;11.756;2023-07-09T09:27:14;29.90;53.70
55313;DHT22;46892;45.668;11.756;2023-07-09T09:29:39;29.80;53.50
55313;DHT22;46892;45.668;11.756;2023-07-09T09:32:20;29.90;54.00
55313;DHT22;46892;45.668;11.756;2023-07-09T09:34:47;29.90;54.60
55313;DHT22;46892;45.668;11.756;2023-07-09T09:37:29;29.90;54.50
55313;DHT22;46892;45.668;11.756;2023-07-09T09:39:55;30.00;55.80
55313;DHT22;46892;45.668;11.756;2023-07-09T09:42:23;30.10;59.40
55313;DHT22;46892;45.668;11.756;2023-07-09T09:44:52;30.20;53.60
55313;DHT22;46892;45.668;11.756;2023-07-09T09:47:18;30.20;53.10
55313;DHT22;46892;45.668;11.756;2023-07-09T09:49:44;30.20;53.00
55313;DHT22;46892;45.668;11.756;2023-07-09T09:52:13;30.10;53.70
55313;DHT22;46892;45.668;11.756;2023-07-09T09:54:41;30.20;54.80
55313;DHT22;46892;45.668;11.756;2023-07-09T09:57:20;30.10;53.00
55313;DHT22;46892;45.668;11.756;2023-07-09T09:59:47;30.10;55.10
55313;DHT22;46892;45.668;11.756;2023-07-09T10:02:23;30.20;55.60
55313;DHT22;46892;45.668;11.756;2023-07-09T10:04:51;30.30;55.20
55313;DHT22;46892;45.668;11.756;2023-07-09T10:07:36;30.40;54.30
55313;DHT22;46892;45.668;11.756;2023-07-09T10:10:16;30.40;54.50
55313;DHT22;46892;45.668;11.756;2023-07-09T10:12:53;30.40;53.20
55313;DHT22;46892;45.668;11.756;2023-07-09T10:21:28;30.20;54.00
55313;DHT22;46892;45.668;11.756;2023-07-09T10:24:15;30.30;54.20
55313;DHT22;46892;45.668;11.756;2023-07-09T10:26:58;30.30;54.20
55313;DHT22;46892;45.668;11.756;2023-07-09T10:35:05;30.50;54.50
55313;DHT22;46892;45.668;11.756;2023-07-09T10:40:38;30.70;52.00
55313;DHT22;46892;45.668;11.756;2023-07-09T10:43:06;30.60;53.80
55313;DHT22;46892;45.668;11.756;2023-07-09T10:45:46;30.70;52.70
55313;DHT22;46892;45.668;11.756;2023-07-09T10:48:16;30.60;52.10
55313;DHT22;46892;45.668;11.756;2023-07-09T10:50:51;30.60;52.10
55313;DHT22;46892;45.668;11.756;2023-07-09T10:56:22;30.70;54.00
55313;DHT22;46892;45.668;11.756;2023-07-09T11:01:42;30.80;54.70
55313;DHT22;46892;45.668;11.756;2023-07-09T11:06:53;31.00;53.10
55313;DHT22;46892;45.668;11.756;2023-07-09T11:09:34;31.10;54.70
55313;DHT22;46892;45.668;11.756;2023-07-09T11:12:10;31.10;54.50
55313;DHT22;46892;45.668;11.756;2023-07-09T11:14:58;31.20;52.20
55313;DHT22;46892;45.668;11.756;2023-07-09T11:17:27;31.20;54.00
55313;DHT22;46892;45.668;11.756;2023-07-09T11:19:56;31.30;52.80
55313;DHT22;46892;45.668;11.756;2023-07-09T11:24:51;31.30;52.70
55313;DHT22;46892;45.668;11.756;2023-07-09T11:27:19;31.30;52.70
55313;DHT22;46892;45.668;11.756;2023-07-09T11:29:48;31.40;52.10
55313;DHT22;46892;45.668;11.756;2023-07-09T11:32:22;31.30;49.70
55313;DHT22;46892;45.668;11.756;2023-07-09T11:34:48;31.20;48.70
55313;DHT22;46892;45.668;11.756;2023-07-09T11:37:15;31.10;48.80
55313;DHT22;46892;45.668;11.756;2023-07-09T11:42:49;30.90;49.70
55313;DHT22;46892;45.668;11.756;2023-07-09T11:45:20;30.80;51.10
55313;DHT22;46892;45.668;11.756;2023-07-09T11:50:56;30.90;51.80
55313;DHT22;46892;45.668;11.756;2023-07-09T11:53:36;30.90;51.70
55313;DHT22;46892;45.668;11.756;2023-07-09T11:56:03;31.00;54.30
55313;DHT22;46892;45.668;11.756;2023-07-09T11:58:30;31.20;51.30
55313;DHT22;46892;45.668;11.756;2023-07-09T12:00:57;31.30;49.50
55313;DHT22;46892;45.668;11.756;2023-07-09T12:05:56;31.20;52.40
55313;DHT22;46892;45.668;11.756;2023-07-09T12:08:28;31.20;52.50
55313;DHT22;46892;45.668;11.756;2023-07-09T12:10:57;31.20;49.90
55313;DHT22;46892;45.668;11.756;2023-07-09T12:13:23;31.30;50.70
55313;DHT22;46892;45.668;11.756;2023-07-09T12:15:49;31.40;48.20
55313;DHT22;46892;45.668;11.756;2023-07-09T12:18:15;31.50;50.00
55313;DHT22;46892;45.668;11.756;2023-07-09T12:20:45;31.60;50.30
55313;DHT22;46892;45.668;11.756;2023-07-09T12:23:29;31.70;48.40
55313;DHT22;46892;45.668;11.756;2023-07-09T12:25:59;31.70;47.90
55313;DHT22;46892;45.668;11.756;2023-07-09T12:28:27;31.70;50.10
55313;DHT22;46892;45.668;11.756;2023-07-09T12:30:53;31.70;49.60
55313;DHT22;46892;45.668;11.756;2023-07-09T12:33:21;31.80;50.80
55313;DHT22;46892;45.668;11.756;2023-07-09T12:35:57;31.80;49.70
55313;DHT22;46892;45.668;11.756;2023-07-09T12:38:26;31.90;48.90
55313;DHT22;46892;45.668;11.756;2023-07-09T12:40:54;31.90;48.50
55313;DHT22;46892;45.668;11.756;2023-07-09T12:43:26;31.90;49.40
55313;DHT22;46892;45.668;11.756;2023-07-09T12:45:53;31.80;48.70
55313;DHT22;46892;45.668;11.756;2023-07-09T12:48:23;31.60;47.20
55313;DHT22;46892;45.668;11.756;2023-07-09T12:50:50;31.30;49.30
55313;DHT22;46892;45.668;11.756;2023-07-09T12:53:19;31.40;52.30
55313;DHT22;46892;45.668;11.756;2023-07-09T12:55:47;31.50;49.90
55313;DHT22;46892;45.668;11.756;2023-07-09T12:58:20;31.70;51.00
55313;DHT22;46892;45.668;11.756;2023-07-09T13:00:54;31.70;50.00
55313;DHT22;46892;45.668;11.756;2023-07-09T13:03:26;31.80;50.20
55313;DHT22;46892;45.668;11.756;2023-07-09T13:05:54;32.00;49.00
55313;DHT22;46892;45.668;11.756;2023-07-09T13:08:21;32.10;48.00
55313;DHT22;46892;45.668;11.756;2023-07-09T13:10:47;32.20;46.60
55313;DHT22;46892;45.668;11.756;2023-07-09T13:13:18;32.10;46.60
55313;DHT22;46892;45.668;11.756;2023-07-09T13:15:48;32.00;47.80
55313;DHT22;46892;45.668;11.756;2023-07-09T13:18:15;32.00;48.90
55313;DHT22;46892;45.668;11.756;2023-07-09T13:20:45;32.00;49.80
55313;DHT22;46892;45.668;11.756;2023-07-09T13:23:20;32.10;48.30
55313;DHT22;46892;45.668;11.756;2023-07-09T13:25:47;32.10;47.30
55313;DHT22;46892;45.668;11.756;2023-07-09T13:30:53;31.80;46.20
55313;DHT22;46892;45.668;11.756;2023-07-09T13:33:20;31.80;49.30
55313;DHT22;46892;45.668;11.756;2023-07-09T13:35:47;31.90;47.80
55313;DHT22;46892;45.668;11.756;2023-07-09T13:38:18;32.00;50.00
55313;DHT22;46892;45.668;11.756;2023-07-09T13:40:46;31.90;46.70
55313;DHT22;46892;45.668;11.756;2023-07-09T13:43:14;32.00;48.40
55313;DHT22;46892;45.668;11.756;2023-07-09T13:45:40;32.00;48.10
55313;DHT22;46892;45.668;11.756;2023-07-09T13:48:15;32.10;46.50
55313;DHT22;46892;45.668;11.756;2023-07-09T13:50:42;32.20;46.70
55313;DHT22;46892;45.668;11.756;2023-07-09T13:53:16;32.20;47.00
55313;DHT22;46892;45.668;11.756;2023-07-09T13:55:42;32.20;47.40
55313;DHT22;46892;45.668;11.756;2023-07-09T13:58:10;32.20;49.50
55313;DHT22;46892;45.668;11.756;2023-07-09T14:00:37;32.20;46.50
55313;DHT22;46892;45.668;11.756;2023-07-09T14:03:04;32.10;46.80
55313;DHT22;46892;45.668;11.756;2023-07-09T14:05:33;32.10;47.00
55313;DHT22;46892;45.668;11.756;2023-07-09T14:07:58;32.20;48.50
55313;DHT22;46892;45.668;11.756;2023-07-09T14:10:24;32.10;46.90
55313;DHT22;46892;45.668;11.756;2023-07-09T14:12:50;32.00;46.90
55313;DHT22;46892;45.668;11.756;2023-07-09T14:15:18;32.00;47.50
55313;DHT22;46892;45.668;11.756;2023-07-09T14:17:45;32.00;46.80
55313;DHT22;46892;45.668;11.756;2023-07-09T14:20:17;32.00;48.90
55313;DHT22;46892;45.668;11.756;2023-07-09T14:22:44;32.00;47.40
55313;DHT22;46892;45.668;11.756;2023-07-09T14:25:22;32.00;49.60
55313;DHT22;46892;45.668;11.756;2023-07-09T14:27:53;31.90;48.20
55313;DHT22;46892;45.668;11.756;2023-07-09T14:30:21;31.90;49.40
55313;DHT22;46892;45.668;11.756;2023-07-09T14:32:48;32.00;50.30
55313;DHT22;46892;45.668;11.756;2023-07-09T14:35:19;32.10;49.20
55313;DHT22;46892;45.668;11.756;2023-07-09T14:37:48;32.20;48.50
55313;DHT22;46892;45.668;11.756;2023-07-09T14:40:15;32.30;47.00
55313;DHT22;46892;45.668;11.756;2023-07-09T14:42:41;32.20;46.60
55313;DHT22;46892;45.668;11.756;2023-07-09T14:45:26;32.00;47.30
55313;DHT22;46892;45.668;11.756;2023-07-09T14:47:54;32.00;48.10
55313;DHT22;46892;45.668;11.756;2023-07-09T14:50:22;32.00;47.20
55313;DHT22;46892;45.668;11.756;2023-07-09T14:52:48;32.00;50.20
55313;DHT22;46892;45.668;11.756;2023-07-09T14:55:16;32.10;48.50
55313;DHT22;46892;45.668;11.756;2023-07-09T14:57:43;32.20;47.70
55313;DHT22;46892;45.668;11.756;2023-07-09T15:00:17;32.20;48.00
55313;DHT22;46892;45.668;11.756;2023-07-09T15:02:44;32.30;47.10
55313;DHT22;46892;45.668;11.756;2023-07-09T15:05:15;32.40;50.30
55313;DHT22;46892;45.668;11.756;2023-07-09T15:07:41;32.30;46.50
55313;DHT22;46892;45.668;11.756;2023-07-09T15:10:08;32.20;46.80
55313;DHT22;46892;45.668;11.756;2023-07-09T15:12:36;32.20;46.70
55313;DHT22;46892;45.668;11.756;2023-07-09T15:15:22;32.20;46.90
55313;DHT22;46892;45.668;11.756;2023-07-09T15:17:49;32.20;47.90
55313;DHT22;46892;45.668;11.756;2023-07-09T15:20:33;32.20;46.60
55313;DHT22;46892;45.668;11.756;2023-07-09T15:22:59;32.20;47.20
55313;DHT22;46892;45.668;11.756;2023-07-09T15:25:27;32.20;46.70
55313;DHT22;46892;45.668;11.756;2023-07-09T15:27:53;32.20;46.50
55313;DHT22;46892;45.668;11.756;2023-07-09T15:30:26;32.20;48.20
55313;DHT22;46892;45.668;11.756;2023-07-09T15:32:55;32.30;49.50
55313;DHT22;46892;45.668;11.756;2023-07-09T15:35:21;32.40;46.80
55313;DHT22;46892;45.668;11.756;2023-07-09T15:37:48;32.60;46.40
55313;DHT22;46892;45.668;11.756;2023-07-09T15:42:44;32.70;46.90
55313;DHT22;46892;45.668;11.756;2023-07-09T15:45:17;32.60;47.20
55313;DHT22;46892;45.668;11.756;2023-07-09T15:47:45;32.50;45.90
55313;DHT22;46892;45.668;11.756;2023-07-09T15:52:39;32.50;47.00
55313;DHT22;46892;45.668;11.756;2023-07-09T15:55:07;32.30;46.20
55313;DHT22;46892;45.668;11.756;2023-07-09T15:57:33;32.30;46.60
55313;DHT22;46892;45.668;11.756;2023-07-09T15:59:58;32.20;46.50
55313;DHT22;46892;45.668;11.756;2023-07-09T16:02:24;32.20;47.70
55313;DHT22;46892;45.668;11.756;2023-07-09T16:04:50;32.20;48.00
55313;DHT22;46892;45.668;11.756;2023-07-09T16:07:15;32.20;48.10
55313;DHT22;46892;45.668;11.756;2023-07-09T16:09:41;32.30;48.50
55313;DHT22;46892;45.668;11.756;2023-07-09T16:12:11;32.30;48.50
55313;DHT22;46892;45.668;11.756;2023-07-09T16:14:38;32.40;49.70
55313;DHT22;46892;45.668;11.756;2023-07-09T16:17:10;32.50;48.80
55313;DHT22;46892;45.668;11.756;2023-07-09T16:19:35;32.50;48.30
55313;DHT22;46892;45.668;11.756;2023-07-09T16:22:03;32.50;47.80
55313;DHT22;46892;45.668;11.756;2023-07-09T16:24:32;32.50;47.70